sensor_id;sensor_type;location;lat;lon;timestamp;pressure;altitude;pressure_sealevel;temperature;humidity
39891;BME280;25564;53.312;9.790;2022-12-15T00:01:44;99651.44;;;-8.92;85.66
39891;BME280;25564;53.312;9.790;2022-12-15T00:04:34;99667.44;;;-8.78;85.61
39891;BME280;25564;53.312;9.790;2022-12-15T00:07:24;99664.25;;;-8.72;85.47
39891;BME280;25564;53.312;9.790;2022-12-15T00:10:14;99623.34;;;-8.87;85.76
39891;BME280;25564;53.312;9.790;2022-12-15T00:13:12;99658.59;;;-8.64;85.91
39891;BME280;25564;53.312;9.790;2022-12-15T00:16:03;99665.50;;;-8.63;85.81
39891;BME280;25564;53.312;9.790;2022-12-15T00:18:54;99665.13;;;-8.51;85.75
39891;BME280;25564;53.312;9.790;2022-12-15T00:21:43;99599.66;;;-8.80;86.13
39891;BME280;25564;53.312;9.790;2022-12-15T00:24:33;99649.19;;;-8.42;86.13
39891;BME280;25564;53.312;9.790;2022-12-15T00:27:23;99679.97;;;-8.21;86.46
39891;BME280;25564;53.312;9.790;2022-12-15T00:30:13;99652.56;;;-8.21;86.18
39891;BME280;25564;53.312;9.790;2022-12-15T00:33:10;99653.84;;;-8.10;86.25
39891;BME280;25564;53.312;9.790;2022-12-15T00:36:01;99650.47;;;-8.09;86.36
39891;BME280;25564;53.312;9.790;2022-12-15T00:38:51;99668.50;;;-7.86;87.01
39891;BME280;25564;53.312;9.790;2022-12-15T00:41:22;99670.47;;;-7.79;86.81
39891;BME280;25564;53.312;9.790;2022-12-15T00:43:54;99661.06;;;-7.79;87.23
39891;BME280;25564;53.312;9.790;2022-12-15T00:46:25;99676.34;;;-7.61;87.30
39891;BME280;25564;53.312;9.790;2022-12-15T00:49:15;99671.41;;;-7.55;86.74
39891;BME280;25564;53.312;9.790;2022-12-15T00:52:05;99671.91;;;-7.41;87.41
39891;BME280;25564;53.312;9.790;2022-12-15T00:54:55;99667.16;;;-7.31;87.61
39891;BME280;25564;53.312;9.790;2022-12-15T00:57:45;99669.22;;;-7.20;87.47
39891;BME280;25564;53.312;9.790;2022-12-15T01:00:35;99678.03;;;-7.14;87.43
39891;BME280;25564;53.312;9.790;2022-12-15T01:03:25;99674.81;;;-7.08;88.10
39891;BME280;25564;53.312;9.790;2022-12-15T01:06:17;99683.69;;;-7.00;87.90
39891;BME280;25564;53.312;9.790;2022-12-15T01:09:09;99677.00;;;-6.95;88.13
39891;BME280;25564;53.312;9.790;2022-12-15T01:11:59;99677.97;;;-6.92;88.32
39891;BME280;25564;53.312;9.790;2022-12-15T01:14:49;99682.38;;;-6.89;88.19
39891;BME280;25564;53.312;9.790;2022-12-15T01:17:39;99695.41;;;-6.84;87.86
39891;BME280;25564;53.312;9.790;2022-12-15T01:20:29;99588.38;;;-7.48;88.41
39891;BME280;25564;53.312;9.790;2022-12-15T01:23:04;99648.00;;;-7.13;88.08
39891;BME280;25564;53.312;9.790;2022-12-15T01:25:37;99676.78;;;-7.01;87.94
39891;BME280;25564;53.312;9.790;2022-12-15T01:28:08;99690.81;;;-6.93;88.21
39891;BME280;25564;53.312;9.790;2022-12-15T01:30:39;99674.03;;;-7.06;87.90
39891;BME280;25564;53.312;9.790;2022-12-15T01:33:12;99693.91;;;-7.03;87.93
39891;BME280;25564;53.312;9.790;2022-12-15T01:35:44;99695.31;;;-7.11;87.93
39891;BME280;25564;53.312;9.790;2022-12-15T01:38:15;99707.28;;;-7.13;87.62
39891;BME280;25564;53.312;9.790;2022-12-15T01:40:55;99709.69;;;-7.18;87.86
39891;BME280;25564;53.312;9.790;2022-12-15T01:43:31;99713.75;;;-7.25;87.28
39891;BME280;25564;53.312;9.790;2022-12-15T01:46:20;99692.47;;;-7.43;87.22
39891;BME280;25564;53.312;9.790;2022-12-15T01:49:12;99724.56;;;-7.35;87.64
39891;BME280;25564;53.312;9.790;2022-12-15T01:51:47;99712.31;;;-7.40;87.21
39891;BME280;25564;53.312;9.790;2022-12-15T01:54:50;99732.75;;;-7.45;87.24
39891;BME280;25564;53.312;9.790;2022-12-15T01:57:26;99738.69;;;-7.47;87.17
39891;BME280;25564;53.312;9.790;2022-12-15T02:00:00;99733.34;;;-7.52;86.93
39891;BME280;25564;53.312;9.790;2022-12-15T02:02:35;99703.13;;;-7.78;87.14
39891;BME280;25564;53.312;9.790;2022-12-15T02:05:10;99730.41;;;-7.61;87.02
39891;BME280;25564;53.312;9.790;2022-12-15T02:07:41;99733.63;;;-7.67;86.96
39891;BME280;25564;53.312;9.790;2022-12-15T02:10:13;99739.53;;;-7.69;87.03
39891;BME280;25564;53.312;9.790;2022-12-15T02:13:02;99733.41;;;-7.73;86.79
39891;BME280;25564;53.312;9.790;2022-12-15T02:15:48;99714.97;;;-7.83;86.68
39891;BME280;25564;53.312;9.790;2022-12-15T02:18:28;99710.50;;;-7.87;86.63
39891;BME280;25564;53.312;9.790;2022-12-15T02:21:09;99723.50;;;-7.84;86.69
39891;BME280;25564;53.312;9.790;2022-12-15T02:24:12;99741.81;;;-7.77;86.86
39891;BME280;25564;53.312;9.790;2022-12-15T02:30:05;99742.69;;;-7.76;86.65
39891;BME280;25564;53.312;9.790;2022-12-15T02:35:52;99756.41;;;-7.77;86.45
39891;BME280;25564;53.312;9.790;2022-12-15T02:38:35;99743.16;;;-7.86;86.76
39891;BME280;25564;53.312;9.790;2022-12-15T02:41:39;99745.97;;;-7.80;86.66
39891;BME280;25564;53.312;9.790;2022-12-15T02:44:16;99715.41;;;-7.94;86.74
39891;BME280;25564;53.312;9.790;2022-12-15T02:47:17;99751.25;;;-7.77;86.65
39891;BME280;25564;53.312;9.790;2022-12-15T03:01:36;99761.78;;;-7.71;86.69
39891;BME280;25564;53.312;9.790;2022-12-15T03:04:11;99754.81;;;-7.74;87.11
39891;BME280;25564;53.312;9.790;2022-12-15T03:06:43;99767.94;;;-7.68;86.79
39891;BME280;25564;53.312;9.790;2022-12-15T03:09:14;99761.72;;;-7.73;86.41
39891;BME280;25564;53.312;9.790;2022-12-15T03:11:45;99763.59;;;-7.69;86.92
39891;BME280;25564;53.312;9.790;2022-12-15T03:14:17;99763.53;;;-7.70;86.53
39891;BME280;25564;53.312;9.790;2022-12-15T03:16:48;99757.44;;;-7.72;86.45
39891;BME280;25564;53.312;9.790;2022-12-15T03:19:20;99758.16;;;-7.76;86.74
39891;BME280;25564;53.312;9.790;2022-12-15T03:21:51;99731.69;;;-7.95;86.74
39891;BME280;25564;53.312;9.790;2022-12-15T03:24:23;99749.31;;;-7.83;86.94
39891;BME280;25564;53.312;9.790;2022-12-15T03:26:55;99753.63;;;-7.82;86.63
39891;BME280;25564;53.312;9.790;2022-12-15T03:29:26;99731.78;;;-7.92;86.56
39891;BME280;25564;53.312;9.790;2022-12-15T03:31:58;99735.69;;;-7.80;86.62
39891;BME280;25564;53.312;9.790;2022-12-15T03:34:29;99743.47;;;-7.79;86.63
39891;BME280;25564;53.312;9.790;2022-12-15T03:37:00;99707.69;;;-7.94;86.56
39891;BME280;25564;53.312;9.790;2022-12-15T03:39:32;99722.63;;;-7.85;86.65
39891;BME280;25564;53.312;9.790;2022-12-15T03:42:03;99717.41;;;-7.86;87.02
39891;BME280;25564;53.312;9.790;2022-12-15T03:44:34;99764.59;;;-7.65;86.76
39891;BME280;25564;53.312;9.790;2022-12-15T03:47:06;99766.47;;;-7.61;87.17
39891;BME280;25564;53.312;9.790;2022-12-15T03:49:37;99731.53;;;-7.77;87.03
39891;BME280;25564;53.312;9.790;2022-12-15T03:52:08;99735.78;;;-7.77;87.05
39891;BME280;25564;53.312;9.790;2022-12-15T03:54:40;99762.97;;;-7.63;87.01
39891;BME280;25564;53.312;9.790;2022-12-15T03:57:11;99757.00;;;-7.62;86.87
39891;BME280;25564;53.312;9.790;2022-12-15T03:59:42;99753.13;;;-7.73;86.79
39891;BME280;25564;53.312;9.790;2022-12-15T04:02:13;99753.13;;;-7.73;86.80
39891;BME280;25564;53.312;9.790;2022-12-15T04:04:45;99753.81;;;-7.77;87.00
39891;BME280;25564;53.312;9.790;2022-12-15T04:07:17;99764.47;;;-7.68;86.57
39891;BME280;25564;53.312;9.790;2022-12-15T04:09:48;99743.53;;;-7.77;86.91
39891;BME280;25564;53.312;9.790;2022-12-15T04:12:19;99755.06;;;-7.68;86.90
39891;BME280;25564;53.312;9.790;2022-12-15T04:14:51;99729.34;;;-7.88;87.09
39891;BME280;25564;53.312;9.790;2022-12-15T04:17:24;99740.94;;;-7.77;86.58
39891;BME280;25564;53.312;9.790;2022-12-15T04:19:55;99744.47;;;-7.75;86.80
39891;BME280;25564;53.312;9.790;2022-12-15T04:22:44;99747.03;;;-7.75;87.15
39891;BME280;25564;53.312;9.790;2022-12-15T04:25:18;99778.72;;;-7.55;87.12
39891;BME280;25564;53.312;9.790;2022-12-15T04:28:09;99783.22;;;-7.50;87.04
39891;BME280;25564;53.312;9.790;2022-12-15T04:31:05;99787.88;;;-7.41;86.99
39891;BME280;25564;53.312;9.790;2022-12-15T04:33:58;99787.22;;;-7.36;87.53
39891;BME280;25564;53.312;9.790;2022-12-15T04:36:51;99761.22;;;-7.42;87.33
39891;BME280;25564;53.312;9.790;2022-12-15T04:39:48;99785.69;;;-7.31;87.14
39891;BME280;25564;53.312;9.790;2022-12-15T04:42:42;99789.16;;;-7.30;87.50
39891;BME280;25564;53.312;9.790;2022-12-15T04:45:34;99786.53;;;-7.32;86.80
39891;BME280;25564;53.312;9.790;2022-12-15T04:48:23;99803.00;;;-7.27;87.80
39891;BME280;25564;53.312;9.790;2022-12-15T04:51:13;99780.31;;;-7.37;87.67
39891;BME280;25564;53.312;9.790;2022-12-15T04:54:15;99792.81;;;-7.23;87.53
39891;BME280;25564;53.312;9.790;2022-12-15T04:57:05;99781.19;;;-7.36;87.09
39891;BME280;25564;53.312;9.790;2022-12-15T04:59:55;99801.25;;;-7.28;87.73
39891;BME280;25564;53.312;9.790;2022-12-15T05:02:44;99806.31;;;-7.31;87.65
39891;BME280;25564;53.312;9.790;2022-12-15T05:05:34;99801.16;;;-7.31;87.58
39891;BME280;25564;53.312;9.790;2022-12-15T05:08:24;99811.34;;;-7.34;87.14
39891;BME280;25564;53.312;9.790;2022-12-15T05:11:14;99789.38;;;-7.46;87.30
39891;BME280;25564;53.312;9.790;2022-12-15T05:14:04;99806.06;;;-7.37;87.63
39891;BME280;25564;53.312;9.790;2022-12-15T05:16:54;99807.84;;;-7.36;87.53
39891;BME280;25564;53.312;9.790;2022-12-15T05:19:44;99800.09;;;-7.36;87.03
39891;BME280;25564;53.312;9.790;2022-12-15T05:22:34;99800.97;;;-7.35;87.75
39891;BME280;25564;53.312;9.790;2022-12-15T05:25:24;99812.22;;;-7.33;87.20
39891;BME280;25564;53.312;9.790;2022-12-15T05:28:14;99814.00;;;-7.32;87.73
39891;BME280;25564;53.312;9.790;2022-12-15T05:31:05;99809.09;;;-7.25;88.10
39891;BME280;25564;53.312;9.790;2022-12-15T05:33:58;99811.78;;;-7.21;87.82
39891;BME280;25564;53.312;9.790;2022-12-15T05:36:36;99796.94;;;-7.29;87.81
39891;BME280;25564;53.312;9.790;2022-12-15T05:39:08;99811.91;;;-7.18;87.55
39891;BME280;25564;53.312;9.790;2022-12-15T05:41:39;99804.94;;;-7.21;87.73
39891;BME280;25564;53.312;9.790;2022-12-15T05:44:13;99787.50;;;-7.28;87.38
39891;BME280;25564;53.312;9.790;2022-12-15T05:46:44;99814.66;;;-7.14;87.54
39891;BME280;25564;53.312;9.790;2022-12-15T05:49:16;99808.75;;;-7.11;87.98
39891;BME280;25564;53.312;9.790;2022-12-15T05:51:48;99818.34;;;-7.07;88.02
39891;BME280;25564;53.312;9.790;2022-12-15T05:54:20;99826.16;;;-7.06;87.81
39891;BME280;25564;53.312;9.790;2022-12-15T05:56:51;99822.69;;;-7.06;87.74
39891;BME280;25564;53.312;9.790;2022-12-15T05:59:23;99822.69;;;-7.06;87.59
39891;BME280;25564;53.312;9.790;2022-12-15T06:01:54;99833.00;;;-7.06;87.35
39891;BME280;25564;53.312;9.790;2022-12-15T06:04:25;99801.25;;;-7.28;87.85
39891;BME280;25564;53.312;9.790;2022-12-15T06:06:57;99823.97;;;-7.17;87.90
39891;BME280;25564;53.312;9.790;2022-12-15T06:09:28;99830.06;;;-7.15;87.94
39891;BME280;25564;53.312;9.790;2022-12-15T06:11:59;99839.69;;;-7.11;88.11
39891;BME280;25564;53.312;9.790;2022-12-15T06:14:31;99847.34;;;-7.13;87.85
39891;BME280;25564;53.312;9.790;2022-12-15T06:17:02;99841.06;;;-7.19;87.81
39891;BME280;25564;53.312;9.790;2022-12-15T06:19:34;99845.66;;;-7.12;87.75
39891;BME280;25564;53.312;9.790;2022-12-15T06:22:05;99851.56;;;-7.15;87.42
39891;BME280;25564;53.312;9.790;2022-12-15T06:24:37;99845.66;;;-7.12;87.54
39891;BME280;25564;53.312;9.790;2022-12-15T06:27:08;99826.44;;;-7.20;87.52
39891;BME280;25564;53.312;9.790;2022-12-15T06:29:40;99838.22;;;-7.27;87.85
39891;BME280;25564;53.312;9.790;2022-12-15T06:32:11;99862.19;;;-7.07;87.74
39891;BME280;25564;53.312;9.790;2022-12-15T06:34:43;99866.34;;;-7.11;87.48
39891;BME280;25564;53.312;9.790;2022-12-15T06:37:14;99865.56;;;-7.08;87.68
39891;BME280;25564;53.312;9.790;2022-12-15T06:39:45;99852.56;;;-7.11;87.62
39891;BME280;25564;53.312;9.790;2022-12-15T06:42:17;99852.56;;;-7.11;87.36
39891;BME280;25564;53.312;9.790;2022-12-15T06:44:48;99870.91;;;-7.04;87.70
39891;BME280;25564;53.312;9.790;2022-12-15T06:47:20;99873.47;;;-7.04;88.13
39891;BME280;25564;53.312;9.790;2022-12-15T06:49:51;99877.00;;;-7.02;87.51
39891;BME280;25564;53.312;9.790;2022-12-15T06:52:23;99861.34;;;-7.06;87.92
39891;BME280;25564;53.312;9.790;2022-12-15T06:54:54;99877.25;;;-6.96;88.10
39891;BME280;25564;53.312;9.790;2022-12-15T06:57:25;99883.28;;;-6.95;87.72
39891;BME280;25564;53.312;9.790;2022-12-15T06:59:57;99859.78;;;-7.03;88.01
39891;BME280;25564;53.312;9.790;2022-12-15T07:02:28;99886.19;;;-6.86;88.55
39891;BME280;25564;53.312;9.790;2022-12-15T07:05:03;99899.22;;;-6.83;87.65
39891;BME280;25564;53.312;9.790;2022-12-15T07:07:34;99875.84;;;-6.87;88.11
39891;BME280;25564;53.312;9.790;2022-12-15T07:10:07;99859.31;;;-6.93;87.90
39891;BME280;25564;53.312;9.790;2022-12-15T07:12:38;99877.66;;;-6.85;87.92
39891;BME280;25564;53.312;9.790;2022-12-15T07:15:10;99873.06;;;-6.92;88.23
39891;BME280;25564;53.312;9.790;2022-12-15T07:17:41;99915.03;;;-6.74;88.73
39891;BME280;25564;53.312;9.790;2022-12-15T07:20:13;99884.44;;;-6.87;88.17
39891;BME280;25564;53.312;9.790;2022-12-15T07:22:49;99894.06;;;-6.83;88.24
39891;BME280;25564;53.312;9.790;2022-12-15T07:25:21;99919.38;;;-6.73;88.30
39891;BME280;25564;53.312;9.790;2022-12-15T07:27:52;99877.88;;;-7.01;88.59
39891;BME280;25564;53.312;9.790;2022-12-15T07:30:23;99920.84;;;-6.79;88.53
39891;BME280;25564;53.312;9.790;2022-12-15T07:32:55;99919.31;;;-6.74;88.37
39891;BME280;25564;53.312;9.790;2022-12-15T07:35:26;99939.56;;;-6.63;88.32
39891;BME280;25564;53.312;9.790;2022-12-15T07:37:57;99924.66;;;-6.70;88.54
39891;BME280;25564;53.312;9.790;2022-12-15T07:40:30;99946.59;;;-6.58;88.86
39891;BME280;25564;53.312;9.790;2022-12-15T07:43:01;99943.25;;;-6.56;88.63
39891;BME280;25564;53.312;9.790;2022-12-15T07:45:33;99934.50;;;-6.60;88.29
39891;BME280;25564;53.312;9.790;2022-12-15T07:48:04;99939.31;;;-6.46;88.89
39891;BME280;25564;53.312;9.790;2022-12-15T07:50:37;99938.25;;;-6.51;88.04
39891;BME280;25564;53.312;9.790;2022-12-15T07:53:09;99947.34;;;-6.39;88.02
39891;BME280;25564;53.312;9.790;2022-12-15T07:55:41;99955.25;;;-6.34;88.86
39891;BME280;25564;53.312;9.790;2022-12-15T07:58:32;99938.59;;;-6.42;88.23
39891;BME280;25564;53.312;9.790;2022-12-15T08:01:06;99954.78;;;-6.24;88.45
39891;BME280;25564;53.312;9.790;2022-12-15T08:03:38;99940.47;;;-6.38;88.52
39891;BME280;25564;53.312;9.790;2022-12-15T08:06:13;99949.59;;;-6.24;88.64
39891;BME280;25564;53.312;9.790;2022-12-15T08:08:45;99951.34;;;-6.23;88.29
39891;BME280;25564;53.312;9.790;2022-12-15T08:11:21;99963.75;;;-6.13;88.66
39891;BME280;25564;53.312;9.790;2022-12-15T08:13:53;99960.19;;;-6.16;88.30
39891;BME280;25564;53.312;9.790;2022-12-15T08:16:34;99968.91;;;-6.13;88.99
39891;BME280;25564;53.312;9.790;2022-12-15T08:19:11;99983.28;;;-5.97;88.94
39891;BME280;25564;53.312;9.790;2022-12-15T08:21:43;99958.09;;;-6.03;88.91
39891;BME280;25564;53.312;9.790;2022-12-15T08:24:18;99981.22;;;-5.82;88.64
39891;BME280;25564;53.312;9.790;2022-12-15T08:26:49;99984.06;;;-5.74;89.33
39891;BME280;25564;53.312;9.790;2022-12-15T08:29:21;99996.47;;;-5.64;89.29
39891;BME280;25564;53.312;9.790;2022-12-15T08:32:12;99998.56;;;-5.54;89.08
39891;BME280;25564;53.312;9.790;2022-12-15T08:34:44;99955.13;;;-5.64;89.34
39891;BME280;25564;53.312;9.790;2022-12-15T08:37:17;99981.00;;;-5.39;89.76
39891;BME280;25564;53.312;9.790;2022-12-15T08:39:49;99992.59;;;-5.28;89.93
39891;BME280;25564;53.312;9.790;2022-12-15T08:42:20;99993.66;;;-5.21;89.50
39891;BME280;25564;53.312;9.790;2022-12-15T08:44:51;99980.50;;;-5.29;89.48
39891;BME280;25564;53.312;9.790;2022-12-15T08:47:23;99982.50;;;-5.20;90.36
39891;BME280;25564;53.312;9.790;2022-12-15T08:49:54;99975.75;;;-5.15;89.66
39891;BME280;25564;53.312;9.790;2022-12-15T08:52:25;100003.38;;;-4.87;90.13
39891;BME280;25564;53.312;9.790;2022-12-15T08:54:57;99986.41;;;-4.79;90.45
39891;BME280;25564;53.312;9.790;2022-12-15T08:57:28;99985.28;;;-4.60;90.18
39891;BME280;25564;53.312;9.790;2022-12-15T08:59:59;99998.31;;;-4.29;90.57
39891;BME280;25564;53.312;9.790;2022-12-15T09:02:31;99986.91;;;-4.05;90.98
39891;BME280;25564;53.312;9.790;2022-12-15T09:05:02;100004.03;;;-3.80;90.60
39891;BME280;25564;53.312;9.790;2022-12-15T09:07:36;99992.25;;;-3.69;91.30
39891;BME280;25564;53.312;9.790;2022-12-15T09:10:07;100006.63;;;-3.49;91.19
39891;BME280;25564;53.312;9.790;2022-12-15T09:12:39;100006.16;;;-3.34;91.58
39891;BME280;25564;53.312;9.790;2022-12-15T09:15:10;100018.75;;;-3.16;91.75
39891;BME280;25564;53.312;9.790;2022-12-15T09:17:42;99995.50;;;-3.10;92.32
39891;BME280;25564;53.312;9.790;2022-12-15T09:20:14;100000.38;;;-2.89;92.37
39891;BME280;25564;53.312;9.790;2022-12-15T09:22:48;100007.91;;;-2.64;92.16
39891;BME280;25564;53.312;9.790;2022-12-15T09:25:20;99939.00;;;-2.86;92.74
39891;BME280;25564;53.312;9.790;2022-12-15T09:27:52;100013.25;;;-2.20;92.23
39891;BME280;25564;53.312;9.790;2022-12-15T09:30:23;100002.91;;;-2.17;92.50
39891;BME280;25564;53.312;9.790;2022-12-15T09:32:54;99988.16;;;-2.18;92.83
39891;BME280;25564;53.312;9.790;2022-12-15T09:35:26;99996.13;;;-2.11;93.13
39891;BME280;25564;53.312;9.790;2022-12-15T09:37:58;100009.34;;;-1.99;92.90
39891;BME280;25564;53.312;9.790;2022-12-15T09:40:29;100017.16;;;-1.99;93.07
39891;BME280;25564;53.312;9.790;2022-12-15T09:43:01;99998.00;;;-2.04;93.34
39891;BME280;25564;53.312;9.790;2022-12-15T09:46:02;100013.97;;;-1.85;93.61
39891;BME280;25564;53.312;9.790;2022-12-15T09:48:39;100006.94;;;-1.89;93.85
39891;BME280;25564;53.312;9.790;2022-12-15T09:51:15;99996.63;;;-1.86;93.10
39891;BME280;25564;53.312;9.790;2022-12-15T09:53:48;100010.72;;;-1.75;93.22
39891;BME280;25564;53.312;9.790;2022-12-15T09:56:43;100023.84;;;-1.69;93.27
39891;BME280;25564;53.312;9.790;2022-12-15T10:02:15;100026.16;;;-1.41;93.47
39891;BME280;25564;53.312;9.790;2022-12-15T10:05:02;100027.56;;;-1.11;94.65
39891;BME280;25564;53.312;9.790;2022-12-15T10:07:44;100026.28;;;-0.85;94.03
39891;BME280;25564;53.312;9.790;2022-12-15T10:10:44;100030.03;;;-0.68;94.90
39891;BME280;25564;53.312;9.790;2022-12-15T10:13:22;100011.75;;;-0.71;94.31
39891;BME280;25564;53.312;9.790;2022-12-15T10:16:12;100003.97;;;-0.69;94.01
39891;BME280;25564;53.312;9.790;2022-12-15T10:18:58;100004.06;;;-0.63;94.33
39891;BME280;25564;53.312;9.790;2022-12-15T10:21:32;100025.94;;;-0.52;95.04
39891;BME280;25564;53.312;9.790;2022-12-15T10:24:16;99999.84;;;-0.55;95.37
39891;BME280;25564;53.312;9.790;2022-12-15T10:30:04;100022.72;;;-0.36;95.76
39891;BME280;25564;53.312;9.790;2022-12-15T10:32:50;100020.31;;;-0.22;95.25
39891;BME280;25564;53.312;9.790;2022-12-15T10:35:33;100012.56;;;-0.19;94.80
39891;BME280;25564;53.312;9.790;2022-12-15T10:38:07;100013.59;;;-0.06;95.44
39891;BME280;25564;53.312;9.790;2022-12-15T10:40:46;100010.22;;;0.03;95.04
39891;BME280;25564;53.312;9.790;2022-12-15T10:43:44;100006.78;;;0.07;96.10
39891;BME280;25564;53.312;9.790;2022-12-15T10:46:20;100010.31;;;0.12;95.58
39891;BME280;25564;53.312;9.790;2022-12-15T10:48:57;100005.19;;;0.18;95.45
39891;BME280;25564;53.312;9.790;2022-12-15T10:51:31;100003.53;;;0.23;96.08
39891;BME280;25564;53.312;9.790;2022-12-15T10:56:53;99979.13;;;0.21;95.85
39891;BME280;25564;53.312;9.790;2022-12-15T10:59:29;100008.91;;;0.37;95.79
39891;BME280;25564;53.312;9.790;2022-12-15T11:02:29;99988.66;;;0.17;95.90
39891;BME280;25564;53.312;9.790;2022-12-15T11:05:16;100009.75;;;0.36;96.19
39891;BME280;25564;53.312;9.790;2022-12-15T11:07:51;100021.25;;;0.50;95.73
39891;BME280;25564;53.312;9.790;2022-12-15T11:10:26;100014.34;;;0.55;95.90
39891;BME280;25564;53.312;9.790;2022-12-15T11:13:19;100026.63;;;0.63;95.67
39891;BME280;25564;53.312;9.790;2022-12-15T11:15:52;100011.88;;;0.67;96.18
39891;BME280;25564;53.312;9.790;2022-12-15T11:18:37;99963.69;;;0.39;95.39
39891;BME280;25564;53.312;9.790;2022-12-15T11:24:15;100000.56;;;0.67;96.26
39891;BME280;25564;53.312;9.790;2022-12-15T11:27:03;100021.63;;;0.83;95.50
39891;BME280;25564;53.312;9.790;2022-12-15T11:29:48;100020.78;;;0.86;96.13
39891;BME280;25564;53.312;9.790;2022-12-15T11:32:25;99988.34;;;0.65;96.06
39891;BME280;25564;53.312;9.790;2022-12-15T11:34:57;100029.53;;;0.89;96.03
39891;BME280;25564;53.312;9.790;2022-12-15T11:37:34;100029.53;;;0.89;95.81
39891;BME280;25564;53.312;9.790;2022-12-15T11:40:18;100003.19;;;0.70;96.09
39891;BME280;25564;53.312;9.790;2022-12-15T11:46:18;100031.06;;;0.71;96.18
39891;BME280;25564;53.312;9.790;2022-12-15T11:51:59;100032.66;;;0.59;96.36
39891;BME280;25564;53.312;9.790;2022-12-15T11:57:37;100040.59;;;0.69;96.07
39891;BME280;25564;53.312;9.790;2022-12-15T12:00:18;100012.69;;;0.61;96.23
39891;BME280;25564;53.312;9.790;2022-12-15T12:02:58;100031.13;;;0.78;96.36
39891;BME280;25564;53.312;9.790;2022-12-15T12:05:58;100031.13;;;0.78;95.85
39891;BME280;25564;53.312;9.790;2022-12-15T12:08:49;100026.72;;;0.73;96.05
39891;BME280;25564;53.312;9.790;2022-12-15T12:11:27;100030.25;;;0.78;95.59
39891;BME280;25564;53.312;9.790;2022-12-15T12:14:34;100032.13;;;0.88;95.80
39891;BME280;25564;53.312;9.790;2022-12-15T12:17:32;100021.69;;;0.91;95.75
39891;BME280;25564;53.312;9.790;2022-12-15T12:20:38;100044.53;;;1.13;96.03
39891;BME280;25564;53.312;9.790;2022-12-15T12:23:19;100024.44;;;1.08;96.32
39891;BME280;25564;53.312;9.790;2022-12-15T12:25:59;100046.41;;;1.28;96.03
39891;BME280;25564;53.312;9.790;2022-12-15T12:28:45;100045.53;;;1.29;95.42
39891;BME280;25564;53.312;9.790;2022-12-15T12:35:02;100048.16;;;1.30;95.93
39891;BME280;25564;53.312;9.790;2022-12-15T12:38:02;100032.44;;;1.24;95.79
39891;BME280;25564;53.312;9.790;2022-12-15T12:40:53;100018.47;;;1.21;95.94
39891;BME280;25564;53.312;9.790;2022-12-15T12:43:39;100032.59;;;1.43;95.23
39891;BME280;25564;53.312;9.790;2022-12-15T12:46:19;100032.66;;;1.52;95.63
39891;BME280;25564;53.312;9.790;2022-12-15T12:49:07;100020.38;;;1.39;95.81
39891;BME280;25564;53.312;9.790;2022-12-15T12:51:49;100038.69;;;1.43;95.06
39891;BME280;25564;53.312;9.790;2022-12-15T12:54:39;100046.59;;;1.48;95.77
39891;BME280;25564;53.312;9.790;2022-12-15T13:07:35;100046.91;;;1.90;95.33
39891;BME280;25564;53.312;9.790;2022-12-15T13:10:20;100024.22;;;1.89;95.33
39891;BME280;25564;53.312;9.790;2022-12-15T13:12:55;100042.63;;;2.02;95.23
39891;BME280;25564;53.312;9.790;2022-12-15T13:20:48;100039.06;;;1.90;95.32
39891;BME280;25564;53.312;9.790;2022-12-15T13:45:58;99996.47;;;0.16;97.75
39891;BME280;25564;53.312;9.790;2022-12-15T13:48:46;99999.22;;;0.26;97.12
39891;BME280;25564;53.312;9.790;2022-12-15T13:51:27;100027.28;;;0.46;96.62
39891;BME280;25564;53.312;9.790;2022-12-15T13:54:12;99994.88;;;0.27;96.07
39891;BME280;25564;53.312;9.790;2022-12-15T13:56:52;100035.09;;;0.44;96.63
39891;BME280;25564;53.312;9.790;2022-12-15T13:59:36;100016.69;;;0.32;96.13
39891;BME280;25564;53.312;9.790;2022-12-15T14:05:14;100049.78;;;0.36;95.69
39891;BME280;25564;53.312;9.790;2022-12-15T14:07:50;100008.63;;;0.15;95.98
39891;BME280;25564;53.312;9.790;2022-12-15T14:10:38;100047.09;;;0.30;96.00
39891;BME280;25564;53.312;9.790;2022-12-15T14:13:24;100054.03;;;0.28;95.99
39891;BME280;25564;53.312;9.790;2022-12-15T14:16:06;100016.28;;;0.02;96.00
39891;BME280;25564;53.312;9.790;2022-12-15T14:19:04;100030.41;;;0.17;95.49
39891;BME280;25564;53.312;9.790;2022-12-15T14:21:50;100050.56;;;0.29;95.91
39891;BME280;25564;53.312;9.790;2022-12-15T14:24:24;100035.63;;;0.17;95.88
39891;BME280;25564;53.312;9.790;2022-12-15T14:27:20;100052.28;;;0.27;96.04
39891;BME280;25564;53.312;9.790;2022-12-15T14:30:17;100051.41;;;0.28;96.04
39891;BME280;25564;53.312;9.790;2022-12-15T14:33:07;100047.00;;;0.22;95.87
39891;BME280;25564;53.312;9.790;2022-12-15T14:35:47;100012.03;;;0.10;95.61
39891;BME280;25564;53.312;9.790;2022-12-15T14:38:23;100043.59;;;0.28;95.88
39891;BME280;25564;53.312;9.790;2022-12-15T14:40:56;100046.28;;;0.36;96.24
39891;BME280;25564;53.312;9.790;2022-12-15T14:43:31;100033.16;;;0.28;95.74
39891;BME280;25564;53.312;9.790;2022-12-15T14:46:08;100049.81;;;0.39;96.64
39891;BME280;25564;53.312;9.790;2022-12-15T14:49:03;100020.84;;;0.18;96.34
39891;BME280;25564;53.312;9.790;2022-12-15T14:51:41;100047.00;;;0.24;95.98
39891;BME280;25564;53.312;9.790;2022-12-15T14:54:37;100064.34;;;0.19;96.49
39891;BME280;25564;53.312;9.790;2022-12-15T14:57:15;100067.59;;;0.03;95.98
39891;BME280;25564;53.312;9.790;2022-12-15T14:59:48;100074.47;;;-0.06;95.62
39891;BME280;25564;53.312;9.790;2022-12-15T15:07:31;100067.00;;;-0.37;94.79
39891;BME280;25564;53.312;9.790;2022-12-15T15:10:20;100074.75;;;-0.42;94.65
39891;BME280;25564;53.312;9.790;2022-12-15T15:12:52;100072.03;;;-0.49;95.03
39891;BME280;25564;53.312;9.790;2022-12-15T15:15:25;100054.44;;;-0.62;95.41
39891;BME280;25564;53.312;9.790;2022-12-15T15:17:57;100071.94;;;-0.54;95.61
39891;BME280;25564;53.312;9.790;2022-12-15T15:20:31;100078.91;;;-0.54;94.76
39891;BME280;25564;53.312;9.790;2022-12-15T15:25:57;100034.00;;;-0.89;95.70
39891;BME280;25564;53.312;9.790;2022-12-15T15:28:42;100072.38;;;-0.79;95.29
39891;BME280;25564;53.312;9.790;2022-12-15T15:33:56;100054.56;;;-1.06;95.23
39891;BME280;25564;53.312;9.790;2022-12-15T15:36:32;100075.50;;;-0.99;94.81
39891;BME280;25564;53.312;9.790;2022-12-15T15:39:14;100071.81;;;-1.13;94.94